Burns, OR

12:03 AM PDT on October 24, 2014 (GMT -0700)
Burns Municipal | Change Station
CLOSE
Current Station
Airport
Location: Burns,
Elevation: 4170 ft
Nearby Weather Stations

Elev 4170 ft 43.60 °N, 118.96 °W | Updated 10 minutes ago

Overcast
Overcast
44 °F
Feels Like 44 °F
N
0
Wind Variable Wind from North

Today
High -- | Low -- °F
--% Chance of Precip.
Yesterday
High -- | Low -- °F
Precip. -- in
7:20 AM 5:57 PM
New Moon, 0% visible
Pressure 30.08 in
Visibility 10.0 miles
Clouds Mostly Cloudy 4700 ft
Overcast 6000 ft
Dew Point 42 °F
Humidity 93%
Rainfall 0.47 in
Snow Depth Not available.
UV 0 out of 12
Pollen 2.00 out of 12
Air Quality Not available.
Flu Activity Sporadic
METAR KBNO 240653Z AUTO 00000KT 10SM -RA BKN047 OVC060 07/06 A3009 RMK AO2 SLP184 P0001 T00670056

More Conditions Fewer Conditions

Pressure 30.08 in
Visibility 10.0 miles
Clouds Mostly Cloudy 4700 ft
Overcast 6000 ft
Dew Point 42 °F
Humidity 93%
Rainfall 0.47 in
Snow Depth Not available.
UV 0 out of 12
Pollen 2.00 out of 12
Air Quality Not available.
Flu Activity Sporadic
METAR KBNO 240653Z AUTO 00000KT 10SM -RA BKN047 OVC060 07/06 A3009 RMK AO2 SLP184 P0001 T00670056

More Conditions Fewer Conditions

10-Day Weather Forecast

Almanac

Astronomy

Oct. 24, 2014 Rise Set
Actual Time 7:20 AM PDT 5:57 PM PDT
Civil Twilight 6:51 AM PDT 6:26 PM PDT
Nautical Twilight 6:17 AM PDT 7:00 PM PDT
Astronomical Twilight 5:44 AM PDT 7:33 PM PDT
Moon 8:05 AM PDT 6:39 PM PDT
Length of Visible Light 11h 35m
Length of Day
10h 36m
Tomorrow will be 2m 46s shorter.
New Moon, 0% of the Moon is Illuminated
Today
New Moon
Oct 30
First Quarter
Nov 6
Full
Nov 14
Last Quarter
Nov 22
New

Today's Extremes

State Highs State Lows

Community

WunderPhotos

Upload Photos

1,764,510 photos uploaded!

WunderBlogs® & News

Nearby

Snow Depth

Station Depth Elevation
Lake Creek R.S. 0 in 5200 ft
Snow Mountain 0 in 6220 ft
Blue Mountain Spring 0 in 5900 ft
Fish Creek 0 in 7900 ft
Tipton 0 in 5150 ft

Earthquake Activity

City Distance Mag. Time & Date
No recent earthquake activity has been reported nearby.
Minimum magnitude displayed is 2.5.

Coastal Water Temperatures

Place Temperature
No Stations Reporting

Nearby Weather Stations